createdAt,value
2022-09-12T00:00:17.043Z,0.0
2022-09-12T00:05:16.723Z,0.0
2022-09-12T00:10:16.644Z,0.0
2022-09-12T00:15:16.801Z,0.0
2022-09-12T00:20:16.634Z,0.0
2022-09-12T00:25:16.861Z,0.0
2022-09-12T00:30:17.127Z,0.0
2022-09-12T00:35:17.084Z,0.0
2022-09-12T00:40:16.935Z,0.0
2022-09-12T00:45:17.096Z,0.0
2022-09-12T00:50:16.770Z,0.0
2022-09-12T00:55:16.993Z,0.0
2022-09-12T01:00:16.824Z,0.0
2022-09-12T01:05:17.799Z,0.0
2022-09-12T01:10:16.758Z,0.0
2022-09-12T01:15:17.004Z,0.0
2022-09-12T01:20:16.715Z,0.0
2022-09-12T01:25:16.856Z,0.0
2022-09-12T01:30:17.985Z,0.0
2022-09-12T01:35:16.897Z,0.0
2022-09-12T01:40:17.048Z,0.0
2022-09-12T01:45:16.942Z,0.0
2022-09-12T01:50:16.912Z,0.0
2022-09-12T01:55:17.103Z,0.0
2022-09-12T02:00:16.987Z,0.0
2022-09-12T02:05:17.011Z,0.0
2022-09-12T02:10:17.061Z,0.0
2022-09-12T02:15:17.232Z,0.0
2022-09-12T02:20:31.060Z,0.0
2022-09-12T02:25:16.963Z,0.0
2022-09-12T02:30:17.009Z,0.0
2022-09-12T02:35:17.135Z,0.0
2022-09-12T02:40:17.179Z,0.0
2022-09-12T02:45:17.162Z,0.0
2022-09-12T02:50:17.063Z,0.0
2022-09-12T02:55:17.135Z,0.0
2022-09-12T03:00:17.075Z,0.0
2022-09-12T03:05:17.155Z,0.0
2022-09-12T03:10:17.029Z,0.0
2022-09-12T03:15:17.429Z,0.0
2022-09-12T03:20:17.035Z,0.0
2022-09-12T03:25:17.299Z,0.0
2022-09-12T03:30:17.247Z,0.0
2022-09-12T03:35:20.901Z,0.0
2022-09-12T03:40:17.165Z,0.0
2022-09-12T03:45:17.665Z,0.0
2022-09-12T03:50:17.028Z,0.0
2022-09-12T03:55:17.146Z,0.0
2022-09-12T04:00:19.986Z,0.0
2022-09-12T04:05:18.239Z,0.0
2022-09-12T04:10:18.165Z,0.0
2022-09-12T04:15:18.430Z,0.0
2022-09-12T04:20:18.142Z,0.0
2022-09-12T04:25:16.252Z,0.0
2022-09-12T04:30:16.212Z,0.0
2022-09-12T04:35:16.593Z,0.0
2022-09-12T04:40:16.310Z,0.0
2022-09-12T04:45:16.381Z,0.0
2022-09-12T04:50:16.183Z,0.0
2022-09-12T04:55:16.415Z,0.0
2022-09-12T05:00:16.308Z,0.0
2022-09-12T05:05:16.413Z,0.0
2022-09-12T05:10:16.401Z,0.0
2022-09-12T05:15:16.508Z,0.0
2022-09-12T05:20:16.420Z,0.0
2022-09-12T05:25:16.663Z,0.0
2022-09-12T05:30:16.370Z,0.0
2022-09-12T05:35:16.347Z,0.0
2022-09-12T05:40:16.351Z,0.0
2022-09-12T05:45:16.700Z,0.0
2022-09-12T05:50:16.313Z,0.0
2022-09-12T05:55:16.381Z,0.0
2022-09-12T06:00:16.400Z,0.0
2022-09-12T06:05:16.365Z,0.0
2022-09-12T06:10:16.384Z,0.0
2022-09-12T06:15:16.576Z,0.0
2022-09-12T06:20:16.639Z,0.0
2022-09-12T06:25:16.680Z,0.0
2022-09-12T06:30:16.389Z,0.0
2022-09-12T06:35:16.676Z,0.0
2022-09-12T06:40:16.410Z,0.0
2022-09-12T06:45:16.894Z,0.0
2022-09-12T06:50:17.019Z,0.0
2022-09-12T06:55:20.362Z,0.0
2022-09-12T07:00:16.589Z,0.0
2022-09-12T07:05:16.541Z,0.0
2022-09-12T07:10:21.628Z,0.0
2022-09-12T07:15:16.673Z,0.0
2022-09-12T07:20:16.786Z,0.0
2022-09-12T07:25:16.810Z,0.0
2022-09-12T07:30:16.771Z,0.0
2022-09-12T07:35:16.640Z,0.0
2022-09-12T07:40:17.956Z,0.0
2022-09-12T07:45:17.027Z,0.0
2022-09-12T07:50:16.605Z,0.0
2022-09-12T07:55:16.674Z,0.0
2022-09-12T08:00:16.805Z,0.0
2022-09-12T08:05:16.697Z,0.0
2022-09-12T08:10:16.650Z,0.0
2022-09-12T08:15:16.815Z,0.0
2022-09-12T08:20:17.193Z,0.0
2022-09-12T08:25:16.750Z,0.0
2022-09-12T08:30:16.918Z,0.0
2022-09-12T08:35:16.989Z,0.0
2022-09-12T08:40:16.824Z,0.0
2022-09-12T08:45:17.276Z,0.0
2022-09-12T08:50:16.833Z,0.0
2022-09-12T08:55:16.834Z,0.0
2022-09-12T09:00:16.886Z,0.0
2022-09-12T09:05:16.802Z,0.0
2022-09-12T09:10:17.020Z,0.0
2022-09-12T09:15:16.980Z,0.0
2022-09-12T09:20:16.780Z,0.0
2022-09-12T09:25:20.866Z,0.0
2022-09-12T09:30:16.881Z,0.0
2022-09-12T09:35:16.735Z,0.0
2022-09-12T09:40:16.988Z,0.0
2022-09-12T09:45:17.121Z,0.0
2022-09-12T09:50:17.169Z,0.0
2022-09-12T09:55:17.274Z,0.0
2022-09-12T10:00:17.025Z,0.0
2022-09-12T10:05:17.005Z,0.0
2022-09-12T10:10:16.871Z,0.0
2022-09-12T10:15:16.967Z,0.0
2022-09-12T10:20:21.591Z,0.0
2022-09-12T10:25:16.990Z,0.0
2022-09-12T10:30:17.058Z,0.0
2022-09-12T10:35:16.984Z,0.0
2022-09-12T10:40:16.949Z,0.0
2022-09-12T10:45:17.103Z,0.0
2022-09-12T10:50:22.603Z,0.0
2022-09-12T10:55:17.532Z,0.0
2022-09-12T11:00:17.067Z,0.0
2022-09-12T11:05:21.982Z,0.0
2022-09-12T11:10:16.982Z,0.0
2022-09-12T11:15:17.149Z,0.0
2022-09-12T11:20:16.971Z,0.0
2022-09-12T11:25:17.009Z,0.0
2022-09-12T11:30:17.237Z,0.0
2022-09-12T11:35:17.781Z,0.0
2022-09-12T11:40:17.069Z,0.0
2022-09-12T11:45:17.267Z,0.0
2022-09-12T11:50:17.056Z,0.0
2022-09-12T11:55:17.954Z,0.0
2022-09-12T12:00:17.291Z,0.0
2022-09-12T12:05:17.512Z,0.5
2022-09-12T12:10:17.035Z,0.6
2022-09-12T12:15:17.084Z,0.6
2022-09-12T12:20:17.160Z,0.7
2022-09-12T12:25:21.307Z,0.9
2022-09-12T12:30:17.104Z,0.9
2022-09-12T12:35:17.185Z,1.0
2022-09-12T12:40:17.352Z,1.0
2022-09-12T12:45:17.374Z,1.1
2022-09-12T12:50:17.196Z,1.2
2022-09-12T12:55:17.228Z,1.3
2022-09-12T13:00:17.686Z,1.4
2022-09-12T13:05:17.437Z,1.4
2022-09-12T13:10:17.305Z,1.6
2022-09-12T13:15:17.647Z,1.7
2022-09-12T13:20:27.834Z,1.9
2022-09-12T13:25:17.347Z,2.0
2022-09-12T13:30:17.309Z,2.1
2022-09-12T13:35:17.364Z,2.2
2022-09-12T13:40:17.368Z,2.3
2022-09-12T13:45:17.560Z,2.4
2022-09-12T13:50:17.510Z,2.7
2022-09-12T13:55:17.366Z,2.5
2022-09-12T14:00:18.329Z,2.6
2022-09-12T14:05:17.387Z,2.9
2022-09-12T14:10:17.419Z,3.1
2022-09-12T14:15:17.637Z,3.0
2022-09-12T14:20:17.261Z,3.1
2022-09-12T14:25:17.728Z,3.4
2022-09-12T14:30:17.580Z,3.4
2022-09-12T14:35:17.469Z,3.3
2022-09-12T14:40:17.494Z,3.2
2022-09-12T14:45:17.589Z,3.2
2022-09-12T14:50:17.457Z,3.2
2022-09-12T14:55:17.415Z,3.6
2022-09-12T15:00:17.595Z,3.8
2022-09-12T15:05:17.583Z,4.0
2022-09-12T15:10:17.494Z,4.2
2022-09-12T15:15:17.761Z,3.9
2022-09-12T15:20:17.479Z,4.0
2022-09-12T15:25:17.585Z,4.3
2022-09-12T15:30:17.657Z,4.9
2022-09-12T15:35:18.027Z,4.8
2022-09-12T15:40:17.653Z,4.8
2022-09-12T15:45:17.673Z,4.6
2022-09-12T15:50:17.609Z,5.1
2022-09-12T15:55:17.603Z,4.8
2022-09-12T16:00:17.611Z,5.1
2022-09-12T16:05:17.825Z,4.9
2022-09-12T16:10:17.789Z,4.9
2022-09-12T16:15:17.727Z,4.9
2022-09-12T16:20:17.796Z,4.4
2022-09-12T16:25:17.728Z,4.2
2022-09-12T16:30:17.682Z,4.4
2022-09-12T16:35:18.162Z,4.7
2022-09-12T16:40:19.019Z,4.9
2022-09-12T16:45:17.965Z,4.9
2022-09-12T16:50:17.664Z,4.8
2022-09-12T16:55:17.699Z,5.0
2022-09-12T17:00:17.811Z,5.1
2022-09-12T17:05:17.734Z,5.4
2022-09-12T17:10:17.661Z,5.3
2022-09-12T17:15:18.368Z,5.4
2022-09-12T17:20:18.116Z,5.3
2022-09-12T17:25:17.870Z,5.3
2022-09-12T17:30:17.840Z,5.0
2022-09-12T17:35:17.811Z,5.0
2022-09-12T17:40:17.737Z,4.5
2022-09-12T17:45:18.682Z,3.8
2022-09-12T17:50:31.398Z,3.8
2022-09-12T17:55:17.879Z,3.5
2022-09-12T18:00:17.927Z,3.7
2022-09-12T18:05:17.866Z,3.7
2022-09-12T18:10:18.028Z,3.8
2022-09-12T18:15:17.940Z,3.8
2022-09-12T18:20:17.820Z,4.3
2022-09-12T18:25:18.119Z,4.2
2022-09-12T18:30:21.663Z,3.8
2022-09-12T18:35:17.924Z,3.1
2022-09-12T18:40:17.922Z,3.7
2022-09-12T18:45:18.027Z,3.6
2022-09-12T18:50:17.915Z,3.0
2022-09-12T18:55:18.172Z,3.0
2022-09-12T19:00:18.031Z,2.9
2022-09-12T19:05:18.204Z,2.1
2022-09-12T19:10:18.226Z,2.0
2022-09-12T19:15:18.280Z,2.0
2022-09-12T19:20:18.091Z,2.1
2022-09-12T19:25:18.008Z,1.9
2022-09-12T19:30:18.411Z,1.7
2022-09-12T19:35:18.221Z,1.6
2022-09-12T19:40:18.068Z,1.5
2022-09-12T19:45:18.097Z,1.5
2022-09-12T19:50:17.987Z,1.5
2022-09-12T19:55:18.082Z,1.4
2022-09-12T20:00:18.146Z,1.3
2022-09-12T20:05:18.231Z,1.2
2022-09-12T20:10:18.093Z,1.1
2022-09-12T20:15:18.261Z,1.1
2022-09-12T20:20:18.062Z,1.0
2022-09-12T20:25:18.153Z,0.9
2022-09-12T20:30:18.327Z,0.9
2022-09-12T20:35:18.121Z,0.9
2022-09-12T20:40:18.430Z,0.8
2022-09-12T20:45:18.192Z,0.7
2022-09-12T20:50:18.210Z,0.6
2022-09-12T20:55:18.136Z,0.6
2022-09-12T21:00:18.223Z,0.5
2022-09-12T21:05:16.391Z,0.5
2022-09-12T21:10:16.168Z,0.3
2022-09-12T21:15:16.508Z,0.0
2022-09-12T21:20:16.232Z,0.0
2022-09-12T21:25:17.400Z,0.0
2022-09-12T21:30:16.274Z,0.0
2022-09-12T21:35:16.299Z,0.0
2022-09-12T21:40:16.318Z,0.0
2022-09-12T21:45:16.686Z,0.0
2022-09-12T21:50:16.405Z,0.0
2022-09-12T21:55:16.344Z,0.0
2022-09-12T22:00:16.444Z,0.0
2022-09-12T22:05:16.254Z,0.0
2022-09-12T22:10:16.246Z,0.0
2022-09-12T22:15:40.189Z,0.0
2022-09-12T22:20:16.251Z,0.0
2022-09-12T22:25:16.606Z,0.0
2022-09-12T22:30:16.430Z,0.0
2022-09-12T22:35:16.582Z,0.0
2022-09-12T22:40:16.403Z,0.0
2022-09-12T22:45:16.286Z,0.0
2022-09-12T22:50:16.524Z,0.0
2022-09-12T22:55:16.576Z,0.0
2022-09-12T23:00:16.754Z,0.0
2022-09-12T23:05:17.786Z,0.0
2022-09-12T23:10:16.421Z,0.0
2022-09-12T23:15:16.744Z,0.0
2022-09-12T23:20:16.380Z,0.0
2022-09-12T23:25:16.714Z,0.0
2022-09-12T23:30:16.522Z,0.0
2022-09-12T23:35:16.689Z,0.0
2022-09-12T23:40:16.712Z,0.0
2022-09-12T23:45:16.751Z,0.0
2022-09-12T23:50:16.652Z,0.0
2022-09-12T23:55:17.719Z,0.0
